createdAt,value
2023-02-27T00:01:00.797Z,71.35
2023-02-27T00:03:28.298Z,70.40
2023-02-27T00:05:56.487Z,71.03
2023-02-27T00:08:23.793Z,70.51
2023-02-27T00:10:50.755Z,70.83
2023-02-27T00:13:18.064Z,70.66
2023-02-27T00:15:50.520Z,71.29
2023-02-27T00:18:18.026Z,70.78
2023-02-27T00:20:45.011Z,70.80
2023-02-27T00:23:12.205Z,70.67
2023-02-27T00:25:39.152Z,70.32
2023-02-27T00:28:06.128Z,70.52
2023-02-27T00:30:33.818Z,69.91
2023-02-27T00:33:00.854Z,69.50
2023-02-27T00:35:27.964Z,69.30
2023-02-27T00:37:54.886Z,69.65
2023-02-27T00:40:25.465Z,69.44
2023-02-27T00:42:53.071Z,68.99
2023-02-27T00:45:20.702Z,69.22
2023-02-27T00:47:48.298Z,68.94
2023-02-27T00:50:15.908Z,68.70
2023-02-27T00:52:43.142Z,68.58
2023-02-27T00:55:10.923Z,68.71
2023-02-27T00:57:38.880Z,68.59
2023-02-27T01:00:08.652Z,68.99
2023-02-27T01:02:35.724Z,68.92
2023-02-27T01:05:03.388Z,68.95
2023-02-27T01:07:31.181Z,69.43
2023-02-27T01:09:59.056Z,69.31
2023-02-27T01:12:26.155Z,69.11
2023-02-27T01:14:53.084Z,68.73
2023-02-27T01:17:20.642Z,69.11
2023-02-27T01:19:47.569Z,69.19
2023-02-27T01:22:33.533Z,68.29
2023-02-27T01:25:01.270Z,68.15
2023-02-27T01:27:30.861Z,67.80
2023-02-27T01:29:58.614Z,68.51
2023-02-27T01:32:25.683Z,68.54
2023-02-27T01:34:52.759Z,68.22
2023-02-27T01:37:19.745Z,68.20
2023-02-27T01:39:46.766Z,68.28
2023-02-27T01:42:26.760Z,68.95
2023-02-27T01:45:21.136Z,69.10
2023-02-27T01:47:52.031Z,68.96
2023-02-27T01:50:20.023Z,69.12
2023-02-27T01:52:53.106Z,69.54
2023-02-27T01:55:21.426Z,69.51
2023-02-27T01:57:50.637Z,69.90
2023-02-27T02:00:18.319Z,68.97
2023-02-27T02:02:58.235Z,69.29
2023-02-27T02:05:26.547Z,70.10
2023-02-27T02:07:54.082Z,70.34
2023-02-27T02:10:21.967Z,69.90
2023-02-27T02:12:50.078Z,70.35
2023-02-27T02:15:17.682Z,70.88
2023-02-27T02:17:56.441Z,70.50
2023-02-27T02:20:38.897Z,70.49
2023-02-27T02:23:26.862Z,70.63
2023-02-27T02:26:08.853Z,70.42
2023-02-27T02:28:52.115Z,70.61
2023-02-27T02:31:44.398Z,70.97
2023-02-27T02:34:32.650Z,70.70
2023-02-27T02:37:26.862Z,70.87
2023-02-27T02:40:07.042Z,71.04
2023-02-27T02:42:59.839Z,70.65
2023-02-27T02:45:48.191Z,70.71
2023-02-27T02:48:22.522Z,70.95
2023-02-27T02:50:57.275Z,71.45
2023-02-27T02:53:41.148Z,71.42
2023-02-27T02:56:25.191Z,71.20
2023-02-27T02:59:06.618Z,70.95
2023-02-27T03:01:50.331Z,71.10
2023-02-27T03:04:20.776Z,70.94
2023-02-27T03:07:00.197Z,70.99
2023-02-27T03:09:34.311Z,71.34
2023-02-27T03:12:04.096Z,71.38
2023-02-27T03:14:38.175Z,72.01
2023-02-27T03:17:10.755Z,71.56
2023-02-27T03:19:46.802Z,71.54
2023-02-27T03:22:19.658Z,72.07
2023-02-27T03:24:56.467Z,71.15
2023-02-27T03:27:28.628Z,72.01
2023-02-27T03:30:07.819Z,72.04
2023-02-27T03:32:49.457Z,71.21
2023-02-27T03:35:17.014Z,71.76
2023-02-27T03:38:08.614Z,71.20
2023-02-27T03:40:40.653Z,71.87
2023-02-27T03:43:41.916Z,72.38
2023-02-27T03:46:14.778Z,72.17
2023-02-27T03:48:44.784Z,71.73
2023-02-27T03:51:14.829Z,72.18
2023-02-27T03:53:50.763Z,72.59
2023-02-27T03:56:24.339Z,72.99
2023-02-27T03:58:52.599Z,72.51
2023-02-27T04:01:19.689Z,72.45
2023-02-27T04:03:54.873Z,72.95
2023-02-27T04:07:07.811Z,72.63
2023-02-27T04:09:56.745Z,72.87
2023-02-27T04:12:36.591Z,73.50
2023-02-27T04:15:26.893Z,73.29
2023-02-27T04:17:56.718Z,73.71
2023-02-27T04:20:35.497Z,73.36
2023-02-27T04:23:17.593Z,74.23
2023-02-27T04:25:50.643Z,74.33
2023-02-27T04:28:25.904Z,73.87
2023-02-27T04:31:08.254Z,73.53
2023-02-27T04:33:58.118Z,74.45
2023-02-27T04:36:34.984Z,73.84
2023-02-27T04:39:15.567Z,73.85
2023-02-27T04:41:53.204Z,73.61
2023-02-27T04:44:22.921Z,73.78
2023-02-27T04:46:52.359Z,73.58
2023-02-27T04:49:28.132Z,73.48
2023-02-27T04:52:14.041Z,74.44
2023-02-27T04:54:56.772Z,73.70
2023-02-27T04:57:34.990Z,74.08
2023-02-27T05:00:06.694Z,74.01
2023-02-27T05:02:38.234Z,73.46
2023-02-27T05:05:16.476Z,73.58
2023-02-27T05:07:50.034Z,73.83
2023-02-27T05:10:33.270Z,73.88
2023-02-27T05:13:12.314Z,74.33
2023-02-27T05:15:42.657Z,74.09
2023-02-27T05:18:12.767Z,74.83
2023-02-27T05:21:13.615Z,74.74
2023-02-27T05:24:19.181Z,73.99
2023-02-27T05:27:00.161Z,74.59
2023-02-27T05:29:48.126Z,74.79
2023-02-27T05:32:42.107Z,74.78
2023-02-27T05:35:24.381Z,74.29
2023-02-27T05:38:04.556Z,75.24
2023-02-27T05:40:36.713Z,74.87
2023-02-27T05:43:13.121Z,74.70
2023-02-27T05:45:43.097Z,75.27
2023-02-27T05:48:19.711Z,74.33
2023-02-27T05:50:49.063Z,74.52
2023-02-27T05:53:20.784Z,74.43
2023-02-27T05:55:52.523Z,73.93
2023-02-27T05:58:41.198Z,75.05
2023-02-27T06:01:10.254Z,74.23
2023-02-27T06:03:39.328Z,73.73
2023-02-27T06:06:17.644Z,73.92
2023-02-27T06:08:45.681Z,73.66
2023-02-27T06:11:13.630Z,72.88
2023-02-27T06:13:42.069Z,72.80
2023-02-27T06:16:12.215Z,73.71
2023-02-27T06:18:39.264Z,73.14
2023-02-27T06:21:06.684Z,73.04
2023-02-27T06:23:33.666Z,73.05
2023-02-27T06:26:00.852Z,73.61
2023-02-27T06:28:28.019Z,73.13
2023-02-27T06:30:57.351Z,73.59
2023-02-27T06:33:26.176Z,72.55
2023-02-27T06:35:53.624Z,72.66
2023-02-27T06:38:20.971Z,73.02
2023-02-27T06:40:47.871Z,73.52
2023-02-27T06:43:15.205Z,73.00
2023-02-27T06:45:43.149Z,72.81
2023-02-27T06:48:12.654Z,72.47
2023-02-27T06:50:39.668Z,72.37
2023-02-27T06:53:07.112Z,72.48
2023-02-27T06:55:34.834Z,72.41
2023-02-27T06:58:02.009Z,73.17
2023-02-27T07:00:29.549Z,72.21
2023-02-27T07:02:56.475Z,72.35
2023-02-27T07:05:23.469Z,72.27
2023-02-27T07:07:50.442Z,72.34
2023-02-27T07:10:17.746Z,72.29
2023-02-27T07:12:44.827Z,72.95
2023-02-27T07:15:12.015Z,72.54
2023-02-27T07:17:39.158Z,72.55
2023-02-27T07:20:09.067Z,72.00
2023-02-27T07:22:36.917Z,72.35
2023-02-27T07:25:04.387Z,71.75
2023-02-27T07:27:31.809Z,71.54
2023-02-27T07:29:58.798Z,71.58
2023-02-27T07:32:25.818Z,71.91
2023-02-27T07:34:53.003Z,72.05
2023-02-27T07:37:20.152Z,72.45
2023-02-27T07:39:47.140Z,72.59
2023-02-27T07:42:14.062Z,72.32
2023-02-27T07:44:41.346Z,71.68
2023-02-27T07:47:08.568Z,70.67
2023-02-27T07:49:35.737Z,70.28
2023-02-27T07:52:02.789Z,71.06
2023-02-27T07:54:29.900Z,70.66
2023-02-27T07:56:56.849Z,69.98
2023-02-27T07:59:23.873Z,70.76
2023-02-27T08:01:50.828Z,70.23
2023-02-27T08:04:17.848Z,69.83
2023-02-27T08:06:45.015Z,69.90
2023-02-27T08:09:12.112Z,70.09
2023-02-27T08:11:39.274Z,68.87
2023-02-27T08:14:06.339Z,69.09
2023-02-27T08:16:33.657Z,69.05
2023-02-27T08:19:01.479Z,69.08
2023-02-27T08:21:29.771Z,69.14
2023-02-27T08:23:57.282Z,69.47
2023-02-27T08:26:24.322Z,67.99
2023-02-27T08:28:51.616Z,68.16
2023-02-27T08:31:18.817Z,68.94
2023-02-27T08:33:45.750Z,67.99
2023-02-27T08:36:12.850Z,68.61
2023-02-27T08:38:39.872Z,67.82
2023-02-27T08:41:06.818Z,69.05
2023-02-27T08:43:34.035Z,67.80
2023-02-27T08:46:01.030Z,67.46
2023-02-27T08:48:27.904Z,67.45
2023-02-27T08:50:57.410Z,67.79
2023-02-27T08:53:25.014Z,68.13
2023-02-27T08:55:53.426Z,67.44
2023-02-27T08:58:20.525Z,67.06
2023-02-27T09:00:47.812Z,67.55
2023-02-27T09:03:14.780Z,67.91
2023-02-27T09:05:42.468Z,67.67
2023-02-27T09:08:09.757Z,67.29
2023-02-27T09:10:37.075Z,67.89
2023-02-27T09:13:04.420Z,67.86
2023-02-27T09:15:33.112Z,67.65
2023-02-27T09:18:04.207Z,66.87
2023-02-27T09:20:36.059Z,67.14
2023-02-27T09:23:04.144Z,67.37
2023-02-27T09:25:31.101Z,66.58
2023-02-27T09:27:58.184Z,67.50
2023-02-27T09:30:25.466Z,67.25
2023-02-27T09:32:52.446Z,66.49
2023-02-27T09:35:21.145Z,67.18
2023-02-27T09:37:49.778Z,66.75
2023-02-27T09:40:27.171Z,66.49
2023-02-27T09:42:58.439Z,66.64
2023-02-27T09:45:28.492Z,67.05
2023-02-27T09:48:00.794Z,65.81
2023-02-27T09:50:41.126Z,64.89
2023-02-27T09:53:19.289Z,64.84
2023-02-27T09:55:46.917Z,63.92
2023-02-27T09:58:23.054Z,64.76
2023-02-27T10:00:57.726Z,64.61
2023-02-27T10:04:18.590Z,64.60
2023-02-27T10:06:51.350Z,63.45
2023-02-27T10:09:39.120Z,64.24
2023-02-27T10:12:34.986Z,64.65
2023-02-27T10:15:26.366Z,64.04
2023-02-27T10:18:23.914Z,64.08
2023-02-27T10:21:02.880Z,64.20
2023-02-27T10:24:00.792Z,63.59
2023-02-27T10:26:32.088Z,63.85
2023-02-27T10:29:14.012Z,63.88
2023-02-27T10:31:42.313Z,62.88
2023-02-27T10:34:16.453Z,63.10
2023-02-27T10:36:46.810Z,62.18
2023-02-27T10:39:18.473Z,63.15
2023-02-27T10:41:47.005Z,62.92
2023-02-27T10:44:17.701Z,62.38
2023-02-27T10:46:45.426Z,62.46
2023-02-27T10:49:21.457Z,61.52
2023-02-27T10:52:10.831Z,61.87
2023-02-27T10:54:38.886Z,63.30
2023-02-27T10:57:30.631Z,62.70
2023-02-27T11:00:09.741Z,62.73
2023-02-27T11:02:40.119Z,62.77
2023-02-27T11:05:19.334Z,62.84
2023-02-27T11:07:46.555Z,62.31
2023-02-27T11:10:13.564Z,63.45
2023-02-27T11:12:42.959Z,64.31
2023-02-27T11:15:34.969Z,64.94
2023-02-27T11:18:21.762Z,66.50
2023-02-27T11:20:50.906Z,65.84
2023-02-27T11:23:21.410Z,65.37
2023-02-27T11:25:49.383Z,67.35
2023-02-27T11:28:26.652Z,68.61
2023-02-27T11:31:04.267Z,68.33
2023-02-27T11:33:53.512Z,68.99
2023-02-27T11:36:23.833Z,68.99
2023-02-27T11:38:54.421Z,68.69
2023-02-27T11:41:33.080Z,68.88
2023-02-27T11:44:02.336Z,68.64
2023-02-27T11:46:46.619Z,69.40
2023-02-27T11:50:05.641Z,69.86
2023-02-27T11:52:40.694Z,69.47
2023-02-27T11:55:19.131Z,68.27
2023-02-27T11:57:52.571Z,66.69
2023-02-27T12:01:01.819Z,65.18
2023-02-27T12:03:43.824Z,63.88
2023-02-27T12:06:19.152Z,64.50
2023-02-27T12:08:55.376Z,63.12
2023-02-27T12:11:42.248Z,63.33
2023-02-27T12:14:09.160Z,63.31
2023-02-27T12:16:48.085Z,63.07
2023-02-27T12:19:40.553Z,62.24
2023-02-27T12:22:25.059Z,62.85
2023-02-27T12:24:59.484Z,61.70
2023-02-27T12:27:38.590Z,61.08
2023-02-27T12:30:17.937Z,61.57
2023-02-27T12:33:12.708Z,59.99
2023-02-27T12:35:43.266Z,61.22
2023-02-27T12:38:15.183Z,60.81
2023-02-27T12:41:02.650Z,60.17
2023-02-27T12:43:35.221Z,61.24
2023-02-27T12:46:12.602Z,60.64
2023-02-27T12:48:39.475Z,60.73
2023-02-27T12:51:38.362Z,61.12
2023-02-27T12:54:42.024Z,61.54
2023-02-27T12:57:34.802Z,61.51
2023-02-27T13:00:08.417Z,62.17
2023-02-27T13:02:49.977Z,62.11
2023-02-27T13:05:43.264Z,62.08
2023-02-27T13:08:24.889Z,61.10
2023-02-27T13:10:56.688Z,60.07
2023-02-27T13:13:56.119Z,60.80
2023-02-27T13:16:31.293Z,61.11
2023-02-27T13:19:20.187Z,61.27
2023-02-27T13:21:54.700Z,62.04
2023-02-27T13:24:32.192Z,61.98
2023-02-27T13:27:08.080Z,62.18
2023-02-27T13:29:47.844Z,62.53
2023-02-27T13:32:43.691Z,63.44
2023-02-27T13:35:14.683Z,62.58
2023-02-27T13:38:03.640Z,63.65
2023-02-27T13:40:41.492Z,63.38
2023-02-27T13:43:38.147Z,64.28
2023-02-27T13:46:23.229Z,64.18
2023-02-27T13:49:26.964Z,64.99
2023-02-27T13:51:58.832Z,63.99
2023-02-27T13:54:28.152Z,64.60
2023-02-27T13:56:54.985Z,64.38
2023-02-27T13:59:33.021Z,64.58
2023-02-27T14:02:03.886Z,64.58
2023-02-27T14:04:38.000Z,64.29
2023-02-27T14:07:09.465Z,65.13
2023-02-27T14:09:46.644Z,64.78
2023-02-27T14:12:46.733Z,64.74
2023-02-27T14:15:22.850Z,64.76
2023-02-27T14:17:56.975Z,65.19
2023-02-27T14:20:30.825Z,64.98
2023-02-27T14:23:22.110Z,65.02
2023-02-27T14:25:54.635Z,65.46
2023-02-27T14:28:40.346Z,65.39
2023-02-27T14:31:24.469Z,65.80
2023-02-27T14:33:55.433Z,65.42
2023-02-27T14:36:27.529Z,65.68
2023-02-27T14:39:00.098Z,66.10
2023-02-27T14:41:31.373Z,66.46
2023-02-27T14:43:59.305Z,66.46
2023-02-27T14:46:29.337Z,66.81
2023-02-27T14:49:15.968Z,67.21
2023-02-27T14:51:43.998Z,66.75
2023-02-27T14:54:18.605Z,66.41
2023-02-27T14:57:00.265Z,66.55
2023-02-27T14:59:34.061Z,66.55
2023-02-27T15:02:04.384Z,66.59
2023-02-27T15:04:33.647Z,67.67
2023-02-27T15:07:01.156Z,66.84
2023-02-27T15:09:42.971Z,67.39
2023-02-27T15:12:17.267Z,67.92
2023-02-27T15:14:49.756Z,67.63
2023-02-27T15:17:16.679Z,67.91
2023-02-27T15:19:55.386Z,68.05
2023-02-27T15:22:38.932Z,68.29
2023-02-27T15:25:08.199Z,67.97
2023-02-27T15:27:37.708Z,68.14
2023-02-27T15:30:05.702Z,68.17
2023-02-27T15:32:42.824Z,68.05
2023-02-27T15:35:17.600Z,68.23
2023-02-27T15:37:51.846Z,68.01
2023-02-27T15:40:25.971Z,68.26
2023-02-27T15:42:53.938Z,67.58
2023-02-27T15:45:25.518Z,68.40
2023-02-27T15:47:52.962Z,68.17
2023-02-27T15:50:26.825Z,68.65
2023-02-27T15:53:07.533Z,68.92
2023-02-27T15:55:37.908Z,68.38
2023-02-27T15:58:18.313Z,68.60
2023-02-27T16:00:46.504Z,68.50
2023-02-27T16:03:20.564Z,68.42
2023-02-27T16:05:53.090Z,68.39
2023-02-27T16:08:21.189Z,68.42
2023-02-27T16:10:49.831Z,68.36
2023-02-27T16:13:46.556Z,68.30
2023-02-27T16:16:31.901Z,68.58
2023-02-27T16:19:03.514Z,69.19
2023-02-27T16:21:31.444Z,69.55
2023-02-27T16:24:22.046Z,69.29
2023-02-27T16:26:53.168Z,69.20
2023-02-27T16:29:23.071Z,69.54
2023-02-27T16:31:56.098Z,69.24
2023-02-27T16:34:44.683Z,69.25
2023-02-27T16:37:39.529Z,68.34
2023-02-27T16:40:11.171Z,68.76
2023-02-27T16:42:40.687Z,69.07
2023-02-27T16:45:13.440Z,69.27
2023-02-27T16:47:42.303Z,69.50
2023-02-27T16:50:23.836Z,69.55
2023-02-27T16:52:50.836Z,70.14
2023-02-27T16:55:17.824Z,69.67
2023-02-27T16:57:44.933Z,69.46
2023-02-27T17:00:14.575Z,69.35
2023-02-27T17:02:41.684Z,69.56
2023-02-27T17:05:09.476Z,70.22
2023-02-27T17:07:36.468Z,69.67
2023-02-27T17:10:04.027Z,69.29
2023-02-27T17:12:31.078Z,69.38
2023-02-27T17:14:58.052Z,69.59
2023-02-27T17:17:25.459Z,68.94
2023-02-27T17:19:52.614Z,68.89
2023-02-27T17:22:19.752Z,67.56
2023-02-27T17:24:46.814Z,66.35
2023-02-27T17:27:13.891Z,66.12
2023-02-27T17:29:40.886Z,65.56
2023-02-27T17:32:08.111Z,65.89
2023-02-27T17:34:35.173Z,66.23
2023-02-27T17:37:02.108Z,66.37
2023-02-27T17:39:28.974Z,66.71
2023-02-27T17:41:56.051Z,67.01
2023-02-27T17:44:22.960Z,66.84
2023-02-27T17:46:50.272Z,66.99
2023-02-27T17:49:17.214Z,67.44
2023-02-27T17:51:44.234Z,67.13
2023-02-27T17:54:11.278Z,67.61
2023-02-27T17:56:38.725Z,67.74
2023-02-27T17:59:07.762Z,68.54
2023-02-27T18:01:35.762Z,67.99
2023-02-27T18:04:02.915Z,68.34
2023-02-27T18:06:30.262Z,68.28
2023-02-27T18:08:57.527Z,68.42
2023-02-27T18:11:24.473Z,69.48
2023-02-27T18:13:51.868Z,69.99
2023-02-27T18:16:19.562Z,69.36
2023-02-27T18:18:46.720Z,69.46
2023-02-27T18:21:16.572Z,70.21
2023-02-27T18:23:44.370Z,69.79
2023-02-27T18:26:28.442Z,70.89
2023-02-27T18:29:00.383Z,70.38
2023-02-27T18:31:34.223Z,71.17
2023-02-27T18:34:03.010Z,70.92
2023-02-27T18:36:31.519Z,70.93
2023-02-27T18:38:59.277Z,71.86
2023-02-27T18:41:27.172Z,72.23
2023-02-27T18:43:54.137Z,72.98
2023-02-27T18:46:21.233Z,72.11
2023-02-27T18:48:48.780Z,72.16
2023-02-27T18:51:17.381Z,71.87
2023-02-27T18:53:48.170Z,73.25
2023-02-27T18:56:22.851Z,73.75
2023-02-27T18:58:50.784Z,74.09
2023-02-27T19:01:30.691Z,74.72
2023-02-27T19:04:03.691Z,74.68
2023-02-27T19:06:36.368Z,74.75
2023-02-27T19:09:08.182Z,74.47
2023-02-27T19:11:35.865Z,74.02
2023-02-27T19:14:06.139Z,74.57
2023-02-27T19:16:33.855Z,76.14
2023-02-27T19:19:03.316Z,75.79
2023-02-27T19:21:30.978Z,75.96
2023-02-27T19:23:58.523Z,76.23
2023-02-27T19:26:25.659Z,76.46
2023-02-27T19:28:55.996Z,76.38
2023-02-27T19:31:24.518Z,76.67
2023-02-27T19:33:51.982Z,77.35
2023-02-27T19:36:21.158Z,76.37
2023-02-27T19:38:48.655Z,76.62
2023-02-27T19:41:19.761Z,77.50
2023-02-27T19:43:47.676Z,77.82
2023-02-27T19:46:17.621Z,77.05
2023-02-27T19:48:45.488Z,77.38
2023-02-27T19:51:14.793Z,77.77
2023-02-27T19:53:42.983Z,78.29
2023-02-27T19:56:13.940Z,77.78
2023-02-27T19:58:41.197Z,77.79
2023-02-27T20:01:08.329Z,77.75
2023-02-27T20:03:37.156Z,78.40
2023-02-27T20:06:09.276Z,78.15
2023-02-27T20:08:36.247Z,78.45
2023-02-27T20:11:04.658Z,78.60
2023-02-27T20:13:31.683Z,78.60
2023-02-27T20:16:04.597Z,78.29
2023-02-27T20:18:32.466Z,79.10
2023-02-27T20:21:08.469Z,79.10
2023-02-27T20:23:38.723Z,79.42
2023-02-27T20:26:19.173Z,79.00
2023-02-27T20:28:48.121Z,78.98
2023-02-27T20:31:16.903Z,80.11
2023-02-27T20:33:43.914Z,80.36
2023-02-27T20:36:12.141Z,80.58
2023-02-27T20:38:39.904Z,80.37
2023-02-27T20:41:08.896Z,80.62
2023-02-27T20:43:38.467Z,80.92
2023-02-27T20:46:07.317Z,80.66
2023-02-27T20:48:34.742Z,80.44
2023-02-27T20:51:05.997Z,80.45
2023-02-27T20:53:35.247Z,80.77
2023-02-27T20:56:02.647Z,81.57
2023-02-27T20:58:29.516Z,81.43
2023-02-27T21:00:56.989Z,81.74
2023-02-27T21:03:25.265Z,81.59
2023-02-27T21:05:53.303Z,81.75
2023-02-27T21:08:20.284Z,82.05
2023-02-27T21:10:51.103Z,81.96
2023-02-27T21:13:19.419Z,82.01
2023-02-27T21:15:46.649Z,81.55
2023-02-27T21:18:15.015Z,82.03
2023-02-27T21:20:44.275Z,82.71
2023-02-27T21:23:11.829Z,83.18
2023-02-27T21:25:50.924Z,83.11
2023-02-27T21:28:17.982Z,82.77
2023-02-27T21:30:45.007Z,82.38
2023-02-27T21:33:11.996Z,82.73
2023-02-27T21:35:39.076Z,82.29
2023-02-27T21:38:05.996Z,83.00
2023-02-27T21:40:33.007Z,83.12
2023-02-27T21:42:59.967Z,83.90
2023-02-27T21:45:27.521Z,82.96
2023-02-27T21:47:54.611Z,83.02
2023-02-27T21:50:23.194Z,83.59
2023-02-27T21:52:50.184Z,83.50
2023-02-27T21:55:17.781Z,83.39
2023-02-27T21:57:46.563Z,83.86
2023-02-27T22:00:13.995Z,83.28
2023-02-27T22:02:41.131Z,84.08
2023-02-27T22:05:08.502Z,84.23
2023-02-27T22:07:35.479Z,84.07
2023-02-27T22:10:02.871Z,83.94
2023-02-27T22:12:30.318Z,83.90
2023-02-27T22:14:57.240Z,84.09
2023-02-27T22:17:24.127Z,84.09
2023-02-27T22:19:51.191Z,84.13
2023-02-27T22:22:18.194Z,84.59
2023-02-27T22:24:45.163Z,84.01
2023-02-27T22:27:12.027Z,84.38
2023-02-27T22:29:38.911Z,84.47
2023-02-27T22:32:06.896Z,84.75
2023-02-27T22:34:34.572Z,84.72
2023-02-27T22:37:07.341Z,85.11
2023-02-27T22:39:34.518Z,84.40
2023-02-27T22:42:01.577Z,84.39
2023-02-27T22:44:28.481Z,84.35
2023-02-27T22:46:55.920Z,83.93
2023-02-27T22:49:23.930Z,84.63
2023-02-27T22:51:52.357Z,84.82
2023-02-27T22:54:21.033Z,84.73
2023-02-27T22:56:51.134Z,84.99
2023-02-27T22:59:18.196Z,84.54
2023-02-27T23:01:50.706Z,84.30
2023-02-27T23:04:30.678Z,84.66
2023-02-27T23:07:02.680Z,84.96
2023-02-27T23:09:29.937Z,84.66
2023-02-27T23:12:06.778Z,84.67
2023-02-27T23:14:33.869Z,84.60
2023-02-27T23:17:00.757Z,85.26
2023-02-27T23:19:27.680Z,85.03
2023-02-27T23:21:54.584Z,85.12
2023-02-27T23:24:21.538Z,85.61
2023-02-27T23:26:51.316Z,85.31
2023-02-27T23:29:18.628Z,85.35
2023-02-27T23:31:45.795Z,85.64
2023-02-27T23:34:12.886Z,84.85
2023-02-27T23:36:40.665Z,85.34
2023-02-27T23:39:08.357Z,85.46
2023-02-27T23:41:35.636Z,85.32
2023-02-27T23:44:21.916Z,85.21
2023-02-27T23:46:49.884Z,85.81
2023-02-27T23:49:28.528Z,85.55
2023-02-27T23:52:00.920Z,85.35
2023-02-27T23:54:27.850Z,85.68
2023-02-27T23:56:54.760Z,85.42
2023-02-27T23:59:21.758Z,85.10
